sensor_id;sensor_type;location;lat;lon;timestamp;P1;durP1;ratioP1;P2;durP2;ratioP2
13975;SDS011;7062;49.792;9.946;2024-02-21T00:01:42;8.63;;;2.90;;
13975;SDS011;7062;49.792;9.946;2024-02-21T00:04:07;14.00;;;4.17;;
13975;SDS011;7062;49.792;9.946;2024-02-21T00:06:33;10.93;;;3.53;;
13975;SDS011;7062;49.792;9.946;2024-02-21T00:08:59;14.80;;;5.50;;
13975;SDS011;7062;49.792;9.946;2024-02-21T00:11:24;8.10;;;2.73;;
13975;SDS011;7062;49.792;9.946;2024-02-21T00:13:50;5.97;;;2.63;;
13975;SDS011;7062;49.792;9.946;2024-02-21T00:16:16;6.93;;;3.37;;
13975;SDS011;7062;49.792;9.946;2024-02-21T00:18:42;9.57;;;3.43;;
13975;SDS011;7062;49.792;9.946;2024-02-21T00:21:08;12.30;;;3.53;;
13975;SDS011;7062;49.792;9.946;2024-02-21T00:23:34;14.23;;;3.43;;
13975;SDS011;7062;49.792;9.946;2024-02-21T00:26:00;10.90;;;4.70;;
13975;SDS011;7062;49.792;9.946;2024-02-21T00:28:25;13.07;;;3.93;;
13975;SDS011;7062;49.792;9.946;2024-02-21T00:30:51;13.37;;;3.03;;
13975;SDS011;7062;49.792;9.946;2024-02-21T00:33:18;11.37;;;4.83;;
13975;SDS011;7062;49.792;9.946;2024-02-21T00:35:44;9.17;;;3.07;;
13975;SDS011;7062;49.792;9.946;2024-02-21T00:38:09;10.83;;;4.03;;
13975;SDS011;7062;49.792;9.946;2024-02-21T00:40:35;10.10;;;4.07;;
13975;SDS011;7062;49.792;9.946;2024-02-21T00:43:01;9.67;;;3.50;;
13975;SDS011;7062;49.792;9.946;2024-02-21T00:45:27;14.23;;;3.70;;
13975;SDS011;7062;49.792;9.946;2024-02-21T00:47:53;10.37;;;3.57;;
13975;SDS011;7062;49.792;9.946;2024-02-21T00:50:19;11.07;;;3.33;;
13975;SDS011;7062;49.792;9.946;2024-02-21T00:52:44;15.10;;;5.00;;
13975;SDS011;7062;49.792;9.946;2024-02-21T00:55:10;10.70;;;3.53;;
13975;SDS011;7062;49.792;9.946;2024-02-21T00:57:35;7.17;;;2.53;;
13975;SDS011;7062;49.792;9.946;2024-02-21T01:00:02;11.43;;;3.73;;
13975;SDS011;7062;49.792;9.946;2024-02-21T01:02:28;9.13;;;3.20;;
13975;SDS011;7062;49.792;9.946;2024-02-21T01:04:56;10.07;;;4.27;;
13975;SDS011;7062;49.792;9.946;2024-02-21T01:07:22;9.83;;;4.00;;
13975;SDS011;7062;49.792;9.946;2024-02-21T01:09:48;8.53;;;3.30;;
13975;SDS011;7062;49.792;9.946;2024-02-21T01:12:15;11.23;;;3.70;;
13975;SDS011;7062;49.792;9.946;2024-02-21T01:14:40;9.03;;;4.13;;
13975;SDS011;7062;49.792;9.946;2024-02-21T01:17:06;13.27;;;5.17;;
13975;SDS011;7062;49.792;9.946;2024-02-21T01:19:31;13.37;;;3.77;;
13975;SDS011;7062;49.792;9.946;2024-02-21T01:21:57;17.90;;;3.87;;
13975;SDS011;7062;49.792;9.946;2024-02-21T01:24:23;11.17;;;3.27;;
13975;SDS011;7062;49.792;9.946;2024-02-21T01:26:49;8.87;;;4.90;;
13975;SDS011;7062;49.792;9.946;2024-02-21T01:29:15;9.63;;;4.47;;
13975;SDS011;7062;49.792;9.946;2024-02-21T01:31:40;8.53;;;4.10;;
13975;SDS011;7062;49.792;9.946;2024-02-21T01:34:06;13.53;;;4.33;;
13975;SDS011;7062;49.792;9.946;2024-02-21T01:36:32;10.83;;;5.30;;
13975;SDS011;7062;49.792;9.946;2024-02-21T01:38:58;12.33;;;4.33;;
13975;SDS011;7062;49.792;9.946;2024-02-21T01:41:24;10.73;;;3.47;;
13975;SDS011;7062;49.792;9.946;2024-02-21T01:43:50;10.70;;;4.27;;
13975;SDS011;7062;49.792;9.946;2024-02-21T01:46:15;9.83;;;3.93;;
13975;SDS011;7062;49.792;9.946;2024-02-21T01:48:41;10.57;;;3.77;;
13975;SDS011;7062;49.792;9.946;2024-02-21T01:51:07;8.33;;;3.23;;
13975;SDS011;7062;49.792;9.946;2024-02-21T01:53:35;12.07;;;3.83;;
13975;SDS011;7062;49.792;9.946;2024-02-21T01:56:03;10.93;;;3.97;;
13975;SDS011;7062;49.792;9.946;2024-02-21T01:58:30;10.33;;;3.63;;
13975;SDS011;7062;49.792;9.946;2024-02-21T02:00:57;11.83;;;4.17;;
13975;SDS011;7062;49.792;9.946;2024-02-21T02:03:23;10.90;;;4.27;;
13975;SDS011;7062;49.792;9.946;2024-02-21T02:05:50;13.27;;;4.93;;
13975;SDS011;7062;49.792;9.946;2024-02-21T02:08:16;14.03;;;4.43;;
13975;SDS011;7062;49.792;9.946;2024-02-21T02:10:43;7.50;;;3.63;;
13975;SDS011;7062;49.792;9.946;2024-02-21T02:13:09;12.73;;;3.80;;
13975;SDS011;7062;49.792;9.946;2024-02-21T02:15:41;6.23;;;2.97;;
13975;SDS011;7062;49.792;9.946;2024-02-21T02:18:12;9.57;;;4.20;;
13975;SDS011;7062;49.792;9.946;2024-02-21T02:20:38;11.63;;;5.03;;
13975;SDS011;7062;49.792;9.946;2024-02-21T02:25:35;14.37;;;6.03;;
13975;SDS011;7062;49.792;9.946;2024-02-21T02:28:02;11.07;;;4.90;;
13975;SDS011;7062;49.792;9.946;2024-02-21T02:30:35;13.13;;;4.10;;
13975;SDS011;7062;49.792;9.946;2024-02-21T02:33:02;11.20;;;4.20;;
13975;SDS011;7062;49.792;9.946;2024-02-21T02:35:28;23.40;;;8.43;;
13975;SDS011;7062;49.792;9.946;2024-02-21T02:37:54;19.73;;;9.43;;
13975;SDS011;7062;49.792;9.946;2024-02-21T02:40:19;20.70;;;7.73;;
13975;SDS011;7062;49.792;9.946;2024-02-21T02:42:45;13.40;;;5.33;;
13975;SDS011;7062;49.792;9.946;2024-02-21T02:45:11;15.13;;;4.50;;
13975;SDS011;7062;49.792;9.946;2024-02-21T02:47:39;23.77;;;8.20;;
13975;SDS011;7062;49.792;9.946;2024-02-21T02:50:05;15.40;;;5.97;;
13975;SDS011;7062;49.792;9.946;2024-02-21T02:52:31;12.93;;;4.43;;
13975;SDS011;7062;49.792;9.946;2024-02-21T02:54:57;14.00;;;4.03;;
13975;SDS011;7062;49.792;9.946;2024-02-21T02:57:23;9.67;;;4.03;;
13975;SDS011;7062;49.792;9.946;2024-02-21T02:59:49;13.57;;;5.23;;
13975;SDS011;7062;49.792;9.946;2024-02-21T03:02:15;8.73;;;3.70;;
13975;SDS011;7062;49.792;9.946;2024-02-21T03:04:41;12.27;;;4.70;;
13975;SDS011;7062;49.792;9.946;2024-02-21T03:07:07;12.03;;;4.50;;
13975;SDS011;7062;49.792;9.946;2024-02-21T03:09:32;11.23;;;5.73;;
13975;SDS011;7062;49.792;9.946;2024-02-21T03:11:58;13.83;;;5.00;;
13975;SDS011;7062;49.792;9.946;2024-02-21T03:14:30;10.80;;;3.70;;
13975;SDS011;7062;49.792;9.946;2024-02-21T03:16:59;11.23;;;4.63;;
13975;SDS011;7062;49.792;9.946;2024-02-21T03:19:25;8.60;;;4.13;;
13975;SDS011;7062;49.792;9.946;2024-02-21T03:21:51;13.40;;;4.27;;
13975;SDS011;7062;49.792;9.946;2024-02-21T03:24:20;13.10;;;4.27;;
13975;SDS011;7062;49.792;9.946;2024-02-21T03:26:46;9.23;;;4.30;;
13975;SDS011;7062;49.792;9.946;2024-02-21T03:29:15;9.50;;;4.43;;
13975;SDS011;7062;49.792;9.946;2024-02-21T03:31:42;9.10;;;3.70;;
13975;SDS011;7062;49.792;9.946;2024-02-21T03:34:09;10.47;;;4.77;;
13975;SDS011;7062;49.792;9.946;2024-02-21T03:36:35;15.83;;;5.63;;
13975;SDS011;7062;49.792;9.946;2024-02-21T03:39:01;8.50;;;3.83;;
13975;SDS011;7062;49.792;9.946;2024-02-21T03:41:27;10.67;;;4.37;;
13975;SDS011;7062;49.792;9.946;2024-02-21T03:43:52;12.23;;;5.33;;
13975;SDS011;7062;49.792;9.946;2024-02-21T03:46:18;11.63;;;4.30;;
13975;SDS011;7062;49.792;9.946;2024-02-21T03:48:44;11.57;;;4.07;;
13975;SDS011;7062;49.792;9.946;2024-02-21T03:51:10;12.30;;;4.83;;
13975;SDS011;7062;49.792;9.946;2024-02-21T03:53:36;11.83;;;5.27;;
13975;SDS011;7062;49.792;9.946;2024-02-21T03:56:02;13.00;;;4.97;;
13975;SDS011;7062;49.792;9.946;2024-02-21T03:58:29;13.63;;;5.17;;
13975;SDS011;7062;49.792;9.946;2024-02-21T04:00:55;9.87;;;4.60;;
13975;SDS011;7062;49.792;9.946;2024-02-21T04:03:21;13.97;;;5.27;;
13975;SDS011;7062;49.792;9.946;2024-02-21T04:05:46;12.33;;;5.63;;
13975;SDS011;7062;49.792;9.946;2024-02-21T04:08:12;13.77;;;5.30;;
13975;SDS011;7062;49.792;9.946;2024-02-21T04:10:38;10.80;;;5.43;;
13975;SDS011;7062;49.792;9.946;2024-02-21T04:13:05;7.57;;;4.47;;
13975;SDS011;7062;49.792;9.946;2024-02-21T04:15:31;11.17;;;4.43;;
13975;SDS011;7062;49.792;9.946;2024-02-21T04:17:57;10.33;;;5.07;;
13975;SDS011;7062;49.792;9.946;2024-02-21T04:20:22;12.77;;;4.70;;
13975;SDS011;7062;49.792;9.946;2024-02-21T04:22:48;12.97;;;4.17;;
13975;SDS011;7062;49.792;9.946;2024-02-21T04:25:14;13.77;;;5.80;;
13975;SDS011;7062;49.792;9.946;2024-02-21T04:27:40;10.27;;;5.60;;
13975;SDS011;7062;49.792;9.946;2024-02-21T04:30:06;12.03;;;5.87;;
13975;SDS011;7062;49.792;9.946;2024-02-21T04:32:32;10.63;;;4.63;;
13975;SDS011;7062;49.792;9.946;2024-02-21T04:34:58;15.47;;;5.97;;
13975;SDS011;7062;49.792;9.946;2024-02-21T04:37:24;9.30;;;5.10;;
13975;SDS011;7062;49.792;9.946;2024-02-21T04:39:49;13.30;;;5.70;;
13975;SDS011;7062;49.792;9.946;2024-02-21T04:42:15;10.00;;;4.80;;
13975;SDS011;7062;49.792;9.946;2024-02-21T04:44:41;14.53;;;6.43;;
13975;SDS011;7062;49.792;9.946;2024-02-21T04:47:07;12.13;;;5.37;;
13975;SDS011;7062;49.792;9.946;2024-02-21T04:49:33;15.50;;;5.37;;
13975;SDS011;7062;49.792;9.946;2024-02-21T04:51:59;14.37;;;5.63;;
13975;SDS011;7062;49.792;9.946;2024-02-21T04:54:25;11.07;;;5.07;;
13975;SDS011;7062;49.792;9.946;2024-02-21T04:56:50;11.60;;;5.10;;
13975;SDS011;7062;49.792;9.946;2024-02-21T04:59:17;16.53;;;6.43;;
13975;SDS011;7062;49.792;9.946;2024-02-21T05:01:42;12.10;;;5.43;;
13975;SDS011;7062;49.792;9.946;2024-02-21T05:04:08;14.53;;;6.20;;
13975;SDS011;7062;49.792;9.946;2024-02-21T05:06:40;13.47;;;5.30;;
13975;SDS011;7062;49.792;9.946;2024-02-21T05:09:07;10.13;;;5.73;;
13975;SDS011;7062;49.792;9.946;2024-02-21T05:11:34;14.80;;;6.13;;
13975;SDS011;7062;49.792;9.946;2024-02-21T05:14:00;11.17;;;5.73;;
13975;SDS011;7062;49.792;9.946;2024-02-21T05:16:25;10.43;;;5.47;;
13975;SDS011;7062;49.792;9.946;2024-02-21T05:18:51;15.03;;;6.10;;
13975;SDS011;7062;49.792;9.946;2024-02-21T05:21:17;13.37;;;6.17;;
13975;SDS011;7062;49.792;9.946;2024-02-21T05:23:42;15.30;;;6.57;;
13975;SDS011;7062;49.792;9.946;2024-02-21T05:26:08;10.27;;;6.27;;
13975;SDS011;7062;49.792;9.946;2024-02-21T05:28:34;13.23;;;6.70;;
13975;SDS011;7062;49.792;9.946;2024-02-21T05:30:59;17.53;;;7.17;;
13975;SDS011;7062;49.792;9.946;2024-02-21T05:33:25;12.63;;;6.03;;
13975;SDS011;7062;49.792;9.946;2024-02-21T05:35:51;13.97;;;6.67;;
13975;SDS011;7062;49.792;9.946;2024-02-21T05:38:17;13.23;;;5.87;;
13975;SDS011;7062;49.792;9.946;2024-02-21T05:40:44;10.93;;;6.53;;
13975;SDS011;7062;49.792;9.946;2024-02-21T05:43:10;9.90;;;6.20;;
13975;SDS011;7062;49.792;9.946;2024-02-21T05:45:36;11.03;;;7.00;;
13975;SDS011;7062;49.792;9.946;2024-02-21T05:48:02;13.60;;;7.20;;
13975;SDS011;7062;49.792;9.946;2024-02-21T05:50:28;15.43;;;8.07;;
13975;SDS011;7062;49.792;9.946;2024-02-21T05:52:54;11.57;;;7.30;;
13975;SDS011;7062;49.792;9.946;2024-02-21T05:55:20;14.20;;;6.57;;
13975;SDS011;7062;49.792;9.946;2024-02-21T05:57:46;10.33;;;6.90;;
13975;SDS011;7062;49.792;9.946;2024-02-21T06:00:12;10.00;;;6.30;;
13975;SDS011;7062;49.792;9.946;2024-02-21T06:02:39;20.43;;;7.93;;
13975;SDS011;7062;49.792;9.946;2024-02-21T06:05:05;14.17;;;8.03;;
13975;SDS011;7062;49.792;9.946;2024-02-21T06:07:32;12.40;;;6.97;;
13975;SDS011;7062;49.792;9.946;2024-02-21T06:09:58;16.97;;;7.53;;
13975;SDS011;7062;49.792;9.946;2024-02-21T06:12:24;8.80;;;6.90;;
13975;SDS011;7062;49.792;9.946;2024-02-21T06:14:50;17.67;;;8.13;;
13975;SDS011;7062;49.792;9.946;2024-02-21T06:17:15;12.83;;;8.20;;
13975;SDS011;7062;49.792;9.946;2024-02-21T06:19:42;13.97;;;7.43;;
13975;SDS011;7062;49.792;9.946;2024-02-21T06:22:08;10.97;;;7.03;;
13975;SDS011;7062;49.792;9.946;2024-02-21T06:24:37;12.10;;;7.60;;
13975;SDS011;7062;49.792;9.946;2024-02-21T06:27:04;14.73;;;7.13;;
13975;SDS011;7062;49.792;9.946;2024-02-21T06:29:31;11.07;;;7.27;;
13975;SDS011;7062;49.792;9.946;2024-02-21T06:31:57;12.73;;;7.37;;
13975;SDS011;7062;49.792;9.946;2024-02-21T06:34:23;15.27;;;8.40;;
13975;SDS011;7062;49.792;9.946;2024-02-21T06:36:49;14.53;;;8.67;;
13975;SDS011;7062;49.792;9.946;2024-02-21T06:39:15;14.37;;;7.83;;
13975;SDS011;7062;49.792;9.946;2024-02-21T06:41:41;14.83;;;7.60;;
13975;SDS011;7062;49.792;9.946;2024-02-21T06:44:06;13.40;;;7.80;;
13975;SDS011;7062;49.792;9.946;2024-02-21T06:46:32;12.77;;;7.50;;
13975;SDS011;7062;49.792;9.946;2024-02-21T06:48:58;15.50;;;7.67;;
13975;SDS011;7062;49.792;9.946;2024-02-21T06:51:25;16.00;;;8.60;;
13975;SDS011;7062;49.792;9.946;2024-02-21T06:53:51;11.27;;;7.53;;
13975;SDS011;7062;49.792;9.946;2024-02-21T06:56:17;19.30;;;8.67;;
13975;SDS011;7062;49.792;9.946;2024-02-21T06:58:42;21.03;;;7.67;;
13975;SDS011;7062;49.792;9.946;2024-02-21T07:01:08;8.80;;;6.37;;
13975;SDS011;7062;49.792;9.946;2024-02-21T07:03:35;15.53;;;7.90;;
13975;SDS011;7062;49.792;9.946;2024-02-21T07:06:00;16.23;;;6.67;;
13975;SDS011;7062;49.792;9.946;2024-02-21T07:08:26;12.03;;;6.07;;
13975;SDS011;7062;49.792;9.946;2024-02-21T07:10:52;13.80;;;6.00;;
13975;SDS011;7062;49.792;9.946;2024-02-21T07:13:17;11.77;;;7.50;;
13975;SDS011;7062;49.792;9.946;2024-02-21T07:15:43;15.17;;;6.70;;
13975;SDS011;7062;49.792;9.946;2024-02-21T07:18:09;10.97;;;5.73;;
13975;SDS011;7062;49.792;9.946;2024-02-21T07:20:34;11.87;;;6.80;;
13975;SDS011;7062;49.792;9.946;2024-02-21T07:23:02;9.80;;;6.13;;
13975;SDS011;7062;49.792;9.946;2024-02-21T07:25:28;11.87;;;6.23;;
13975;SDS011;7062;49.792;9.946;2024-02-21T07:27:54;10.23;;;6.07;;
13975;SDS011;7062;49.792;9.946;2024-02-21T07:30:19;19.17;;;7.30;;
13975;SDS011;7062;49.792;9.946;2024-02-21T07:32:45;11.53;;;5.83;;
13975;SDS011;7062;49.792;9.946;2024-02-21T07:35:13;13.87;;;6.87;;
13975;SDS011;7062;49.792;9.946;2024-02-21T07:37:39;15.97;;;6.50;;
13975;SDS011;7062;49.792;9.946;2024-02-21T07:40:12;13.37;;;6.63;;
13975;SDS011;7062;49.792;9.946;2024-02-21T07:42:39;11.57;;;6.50;;
13975;SDS011;7062;49.792;9.946;2024-02-21T07:45:04;11.17;;;6.43;;
13975;SDS011;7062;49.792;9.946;2024-02-21T07:47:30;16.53;;;6.53;;
13975;SDS011;7062;49.792;9.946;2024-02-21T07:49:56;21.07;;;6.70;;
13975;SDS011;7062;49.792;9.946;2024-02-21T07:52:22;15.07;;;6.37;;
13975;SDS011;7062;49.792;9.946;2024-02-21T07:54:47;12.53;;;5.17;;
13975;SDS011;7062;49.792;9.946;2024-02-21T07:57:13;17.20;;;7.13;;
13975;SDS011;7062;49.792;9.946;2024-02-21T07:59:38;11.90;;;6.30;;
13975;SDS011;7062;49.792;9.946;2024-02-21T08:02:04;14.33;;;5.23;;
13975;SDS011;7062;49.792;9.946;2024-02-21T08:04:32;10.57;;;5.20;;
13975;SDS011;7062;49.792;9.946;2024-02-21T08:06:57;15.53;;;6.67;;
13975;SDS011;7062;49.792;9.946;2024-02-21T08:09:28;12.20;;;6.00;;
13975;SDS011;7062;49.792;9.946;2024-02-21T08:11:56;11.70;;;5.63;;
13975;SDS011;7062;49.792;9.946;2024-02-21T08:14:22;13.37;;;5.30;;
13975;SDS011;7062;49.792;9.946;2024-02-21T08:16:49;12.40;;;5.17;;
13975;SDS011;7062;49.792;9.946;2024-02-21T08:19:15;20.33;;;6.27;;
13975;SDS011;7062;49.792;9.946;2024-02-21T08:21:42;9.93;;;4.60;;
13975;SDS011;7062;49.792;9.946;2024-02-21T08:24:07;10.67;;;4.40;;
13975;SDS011;7062;49.792;9.946;2024-02-21T08:26:33;13.00;;;5.23;;
13975;SDS011;7062;49.792;9.946;2024-02-21T08:28:59;15.93;;;4.83;;
13975;SDS011;7062;49.792;9.946;2024-02-21T08:31:25;8.57;;;4.33;;
13975;SDS011;7062;49.792;9.946;2024-02-21T08:33:59;17.37;;;5.93;;
13975;SDS011;7062;49.792;9.946;2024-02-21T08:36:35;10.87;;;4.33;;
13975;SDS011;7062;49.792;9.946;2024-02-21T08:39:01;12.30;;;4.53;;
13975;SDS011;7062;49.792;9.946;2024-02-21T08:41:30;9.80;;;3.80;;
13975;SDS011;7062;49.792;9.946;2024-02-21T08:43:56;11.10;;;4.50;;
13975;SDS011;7062;49.792;9.946;2024-02-21T08:46:25;8.20;;;4.23;;
13975;SDS011;7062;49.792;9.946;2024-02-21T08:48:51;9.53;;;4.50;;
13975;SDS011;7062;49.792;9.946;2024-02-21T08:51:17;9.00;;;3.73;;
13975;SDS011;7062;49.792;9.946;2024-02-21T08:53:44;10.07;;;3.23;;
13975;SDS011;7062;49.792;9.946;2024-02-21T08:56:10;10.67;;;4.67;;
13975;SDS011;7062;49.792;9.946;2024-02-21T08:58:36;10.10;;;3.87;;
13975;SDS011;7062;49.792;9.946;2024-02-21T09:01:03;7.57;;;3.50;;
13975;SDS011;7062;49.792;9.946;2024-02-21T09:03:33;16.30;;;4.53;;
13975;SDS011;7062;49.792;9.946;2024-02-21T09:05:59;6.70;;;3.33;;
13975;SDS011;7062;49.792;9.946;2024-02-21T09:08:25;7.57;;;3.97;;
13975;SDS011;7062;49.792;9.946;2024-02-21T09:10:52;8.00;;;4.27;;
13975;SDS011;7062;49.792;9.946;2024-02-21T09:13:18;11.73;;;3.60;;
13975;SDS011;7062;49.792;9.946;2024-02-21T09:15:44;12.73;;;4.30;;
13975;SDS011;7062;49.792;9.946;2024-02-21T09:18:09;11.00;;;4.37;;
13975;SDS011;7062;49.792;9.946;2024-02-21T09:20:35;8.63;;;3.80;;
13975;SDS011;7062;49.792;9.946;2024-02-21T09:23:01;13.60;;;4.47;;
13975;SDS011;7062;49.792;9.946;2024-02-21T09:25:26;8.80;;;3.37;;
13975;SDS011;7062;49.792;9.946;2024-02-21T09:27:53;9.53;;;3.87;;
13975;SDS011;7062;49.792;9.946;2024-02-21T09:30:19;10.50;;;3.73;;
13975;SDS011;7062;49.792;9.946;2024-02-21T09:32:46;10.90;;;3.80;;
13975;SDS011;7062;49.792;9.946;2024-02-21T09:35:12;5.90;;;2.70;;
13975;SDS011;7062;49.792;9.946;2024-02-21T09:37:38;10.90;;;3.37;;
13975;SDS011;7062;49.792;9.946;2024-02-21T09:40:04;11.27;;;3.83;;
13975;SDS011;7062;49.792;9.946;2024-02-21T09:42:40;10.83;;;4.80;;
13975;SDS011;7062;49.792;9.946;2024-02-21T09:45:23;10.00;;;3.27;;
13975;SDS011;7062;49.792;9.946;2024-02-21T09:50:34;18.73;;;3.97;;
13975;SDS011;7062;49.792;9.946;2024-02-21T09:53:01;5.77;;;2.77;;
13975;SDS011;7062;49.792;9.946;2024-02-21T09:55:29;6.30;;;2.93;;
13975;SDS011;7062;49.792;9.946;2024-02-21T09:57:59;5.87;;;3.33;;
13975;SDS011;7062;49.792;9.946;2024-02-21T10:00:27;9.77;;;3.47;;
13975;SDS011;7062;49.792;9.946;2024-02-21T10:02:53;7.73;;;3.13;;
13975;SDS011;7062;49.792;9.946;2024-02-21T10:05:19;7.20;;;3.10;;
13975;SDS011;7062;49.792;9.946;2024-02-21T10:07:45;7.97;;;2.83;;
13975;SDS011;7062;49.792;9.946;2024-02-21T10:10:11;3.90;;;2.73;;
13975;SDS011;7062;49.792;9.946;2024-02-21T10:12:47;12.43;;;3.70;;
13975;SDS011;7062;49.792;9.946;2024-02-21T10:15:23;8.57;;;3.10;;
13975;SDS011;7062;49.792;9.946;2024-02-21T10:17:49;7.17;;;3.13;;
13975;SDS011;7062;49.792;9.946;2024-02-21T10:20:22;4.43;;;2.23;;
13975;SDS011;7062;49.792;9.946;2024-02-21T10:22:48;11.67;;;3.13;;
13975;SDS011;7062;49.792;9.946;2024-02-21T10:25:14;5.27;;;1.93;;
13975;SDS011;7062;49.792;9.946;2024-02-21T10:27:40;12.87;;;2.73;;
13975;SDS011;7062;49.792;9.946;2024-02-21T13:23:36;4.40;;;1.60;;
13975;SDS011;7062;49.792;9.946;2024-02-21T13:26:02;3.00;;;1.27;;
13975;SDS011;7062;49.792;9.946;2024-02-21T13:28:28;7.37;;;1.70;;
13975;SDS011;7062;49.792;9.946;2024-02-21T13:30:53;6.17;;;2.00;;
13975;SDS011;7062;49.792;9.946;2024-02-21T13:33:19;8.27;;;2.03;;
13975;SDS011;7062;49.792;9.946;2024-02-21T13:35:45;6.27;;;2.23;;
13975;SDS011;7062;49.792;9.946;2024-02-21T13:38:10;7.47;;;1.40;;
13975;SDS011;7062;49.792;9.946;2024-02-21T13:40:36;6.10;;;1.40;;
13975;SDS011;7062;49.792;9.946;2024-02-21T13:43:02;4.27;;;1.30;;
13975;SDS011;7062;49.792;9.946;2024-02-21T13:45:28;6.57;;;1.73;;
13975;SDS011;7062;49.792;9.946;2024-02-21T13:47:53;4.60;;;1.67;;
13975;SDS011;7062;49.792;9.946;2024-02-21T13:50:23;5.93;;;1.70;;
13975;SDS011;7062;49.792;9.946;2024-02-21T13:52:54;5.43;;;2.60;;
13975;SDS011;7062;49.792;9.946;2024-02-21T13:55:19;6.97;;;1.63;;
13975;SDS011;7062;49.792;9.946;2024-02-21T13:57:47;2.93;;;1.43;;
13975;SDS011;7062;49.792;9.946;2024-02-21T14:00:13;7.37;;;1.87;;
13975;SDS011;7062;49.792;9.946;2024-02-21T14:02:39;7.80;;;2.00;;
13975;SDS011;7062;49.792;9.946;2024-02-21T14:05:05;5.83;;;1.70;;
13975;SDS011;7062;49.792;9.946;2024-02-21T14:07:31;3.90;;;1.20;;
13975;SDS011;7062;49.792;9.946;2024-02-21T14:09:58;3.93;;;1.60;;
13975;SDS011;7062;49.792;9.946;2024-02-21T14:12:24;7.60;;;1.60;;
13975;SDS011;7062;49.792;9.946;2024-02-21T14:14:49;5.50;;;1.53;;
13975;SDS011;7062;49.792;9.946;2024-02-21T14:17:15;5.23;;;2.27;;
13975;SDS011;7062;49.792;9.946;2024-02-21T14:19:41;4.93;;;1.60;;
13975;SDS011;7062;49.792;9.946;2024-02-21T14:22:06;7.97;;;1.63;;
13975;SDS011;7062;49.792;9.946;2024-02-21T14:24:32;6.23;;;1.97;;
13975;SDS011;7062;49.792;9.946;2024-02-21T14:26:58;5.50;;;1.80;;
13975;SDS011;7062;49.792;9.946;2024-02-21T14:29:24;14.03;;;3.27;;
13975;SDS011;7062;49.792;9.946;2024-02-21T14:31:50;8.77;;;1.90;;
13975;SDS011;7062;49.792;9.946;2024-02-21T14:34:15;5.97;;;1.53;;
13975;SDS011;7062;49.792;9.946;2024-02-21T14:36:41;4.80;;;1.30;;
13975;SDS011;7062;49.792;9.946;2024-02-21T14:39:07;2.87;;;1.43;;
13975;SDS011;7062;49.792;9.946;2024-02-21T14:41:32;3.53;;;1.90;;
13975;SDS011;7062;49.792;9.946;2024-02-21T14:44:00;6.63;;;1.37;;
13975;SDS011;7062;49.792;9.946;2024-02-21T14:46:26;3.87;;;1.47;;
13975;SDS011;7062;49.792;9.946;2024-02-21T14:48:55;5.50;;;1.60;;
13975;SDS011;7062;49.792;9.946;2024-02-21T14:51:21;6.07;;;1.40;;
13975;SDS011;7062;49.792;9.946;2024-02-21T14:53:46;8.07;;;1.57;;
13975;SDS011;7062;49.792;9.946;2024-02-21T14:56:13;3.90;;;1.60;;
13975;SDS011;7062;49.792;9.946;2024-02-21T14:58:42;5.53;;;1.63;;
13975;SDS011;7062;49.792;9.946;2024-02-21T15:01:08;7.47;;;1.67;;
13975;SDS011;7062;49.792;9.946;2024-02-21T15:03:34;6.07;;;1.37;;
13975;SDS011;7062;49.792;9.946;2024-02-21T15:06:00;8.70;;;1.40;;
13975;SDS011;7062;49.792;9.946;2024-02-21T15:08:27;6.23;;;1.50;;
13975;SDS011;7062;49.792;9.946;2024-02-21T15:10:52;11.10;;;2.00;;
13975;SDS011;7062;49.792;9.946;2024-02-21T15:13:18;6.90;;;2.37;;
13975;SDS011;7062;49.792;9.946;2024-02-21T15:15:44;3.77;;;1.13;;
13975;SDS011;7062;49.792;9.946;2024-02-21T15:18:11;8.57;;;1.70;;
13975;SDS011;7062;49.792;9.946;2024-02-21T15:20:37;5.03;;;1.43;;
13975;SDS011;7062;49.792;9.946;2024-02-21T15:23:03;6.97;;;1.77;;
13975;SDS011;7062;49.792;9.946;2024-02-21T15:25:30;6.20;;;1.60;;
13975;SDS011;7062;49.792;9.946;2024-02-21T15:27:55;4.90;;;1.60;;
13975;SDS011;7062;49.792;9.946;2024-02-21T15:30:21;7.97;;;2.43;;
13975;SDS011;7062;49.792;9.946;2024-02-21T15:32:47;5.43;;;1.47;;
13975;SDS011;7062;49.792;9.946;2024-02-21T15:35:12;3.73;;;1.60;;
13975;SDS011;7062;49.792;9.946;2024-02-21T15:37:38;3.37;;;1.70;;
13975;SDS011;7062;49.792;9.946;2024-02-21T15:40:05;6.67;;;2.27;;
13975;SDS011;7062;49.792;9.946;2024-02-21T15:42:33;6.13;;;1.70;;
13975;SDS011;7062;49.792;9.946;2024-02-21T15:44:58;6.47;;;1.73;;
13975;SDS011;7062;49.792;9.946;2024-02-21T15:47:29;4.73;;;1.23;;
13975;SDS011;7062;49.792;9.946;2024-02-21T15:49:55;4.13;;;1.43;;
13975;SDS011;7062;49.792;9.946;2024-02-21T15:52:23;9.10;;;3.13;;
13975;SDS011;7062;49.792;9.946;2024-02-21T15:54:48;11.63;;;3.47;;
13975;SDS011;7062;49.792;9.946;2024-02-21T15:57:14;21.67;;;9.90;;
13975;SDS011;7062;49.792;9.946;2024-02-21T15:59:40;12.40;;;3.33;;
13975;SDS011;7062;49.792;9.946;2024-02-21T16:02:05;6.37;;;2.07;;
13975;SDS011;7062;49.792;9.946;2024-02-21T16:04:31;6.47;;;1.67;;
13975;SDS011;7062;49.792;9.946;2024-02-21T16:07:00;6.50;;;2.03;;
13975;SDS011;7062;49.792;9.946;2024-02-21T16:09:29;5.90;;;1.63;;
13975;SDS011;7062;49.792;9.946;2024-02-21T16:11:55;4.70;;;2.07;;
13975;SDS011;7062;49.792;9.946;2024-02-21T16:14:21;6.00;;;1.80;;
13975;SDS011;7062;49.792;9.946;2024-02-21T16:16:47;6.70;;;1.70;;
13975;SDS011;7062;49.792;9.946;2024-02-21T16:19:14;3.47;;;1.33;;
13975;SDS011;7062;49.792;9.946;2024-02-21T16:21:40;4.10;;;1.50;;
13975;SDS011;7062;49.792;9.946;2024-02-21T16:24:08;6.00;;;2.53;;
13975;SDS011;7062;49.792;9.946;2024-02-21T16:26:37;5.97;;;1.73;;
13975;SDS011;7062;49.792;9.946;2024-02-21T16:29:03;8.00;;;1.90;;
13975;SDS011;7062;49.792;9.946;2024-02-21T16:31:30;4.80;;;1.33;;
13975;SDS011;7062;49.792;9.946;2024-02-21T16:33:55;3.23;;;1.17;;
13975;SDS011;7062;49.792;9.946;2024-02-21T16:36:21;7.83;;;1.60;;
13975;SDS011;7062;49.792;9.946;2024-02-21T16:38:49;6.33;;;2.27;;
13975;SDS011;7062;49.792;9.946;2024-02-21T16:41:16;3.40;;;1.30;;
13975;SDS011;7062;49.792;9.946;2024-02-21T16:43:43;6.13;;;1.53;;
13975;SDS011;7062;49.792;9.946;2024-02-21T16:46:10;3.20;;;1.57;;
13975;SDS011;7062;49.792;9.946;2024-02-21T16:48:36;3.27;;;1.40;;
13975;SDS011;7062;49.792;9.946;2024-02-21T16:51:03;8.10;;;1.60;;
13975;SDS011;7062;49.792;9.946;2024-02-21T16:53:30;6.33;;;1.40;;
13975;SDS011;7062;49.792;9.946;2024-02-21T16:55:56;3.93;;;2.00;;
13975;SDS011;7062;49.792;9.946;2024-02-21T16:58:24;10.13;;;2.10;;
13975;SDS011;7062;49.792;9.946;2024-02-21T17:00:49;7.17;;;2.30;;
13975;SDS011;7062;49.792;9.946;2024-02-21T17:03:15;6.33;;;2.13;;
13975;SDS011;7062;49.792;9.946;2024-02-21T17:05:44;6.43;;;2.23;;
13975;SDS011;7062;49.792;9.946;2024-02-21T17:08:15;5.43;;;2.03;;
13975;SDS011;7062;49.792;9.946;2024-02-21T17:10:41;6.03;;;2.17;;
13975;SDS011;7062;49.792;9.946;2024-02-21T17:13:07;10.20;;;2.67;;
13975;SDS011;7062;49.792;9.946;2024-02-21T17:15:32;4.20;;;2.33;;
13975;SDS011;7062;49.792;9.946;2024-02-21T17:17:58;7.73;;;1.60;;
13975;SDS011;7062;49.792;9.946;2024-02-21T17:20:24;4.17;;;1.77;;
13975;SDS011;7062;49.792;9.946;2024-02-21T17:22:49;3.50;;;1.70;;
13975;SDS011;7062;49.792;9.946;2024-02-21T17:25:15;10.80;;;2.87;;
13975;SDS011;7062;49.792;9.946;2024-02-21T17:27:41;7.97;;;2.30;;
13975;SDS011;7062;49.792;9.946;2024-02-21T17:30:07;3.23;;;1.73;;
13975;SDS011;7062;49.792;9.946;2024-02-21T17:32:33;6.00;;;1.80;;
13975;SDS011;7062;49.792;9.946;2024-02-21T17:35:00;4.60;;;2.00;;
13975;SDS011;7062;49.792;9.946;2024-02-21T17:37:29;5.83;;;1.80;;
13975;SDS011;7062;49.792;9.946;2024-02-21T17:39:56;7.63;;;1.73;;
13975;SDS011;7062;49.792;9.946;2024-02-21T17:42:21;6.17;;;2.13;;
13975;SDS011;7062;49.792;9.946;2024-02-21T17:44:47;5.13;;;2.30;;
13975;SDS011;7062;49.792;9.946;2024-02-21T17:47:13;5.37;;;2.60;;